Time;durP1;ratioP1;P1;durP2;ratioP2;P2;SDS_P1;SDS_P2;PMS_P1;PMS_P2;Temp;Humidity;BMP_temperature;BMP_pressure;BME280_temperature;BME280_humidity;BME280_pressure;Samples;Min_cycle;Max_cycle;Signal;HPM_P1;HPM_P2
2021/04/23 00:01:34;;;;;;;8.93;7.90;;;11.60;99.90;;;;;;5003380;28;20026;-75
2021/04/23 00:04:03;;;;;;;14.27;7.72;;;11.50;99.90;;;;;;5009238;28;20030;-74
2021/04/23 00:06:38;;;;;;;10.73;7.13;;;11.50;99.90;;;;;;5007375;28;20050;-75
2021/04/23 00:09:12;;;;;;;7.38;6.68;;;11.50;99.90;;;;;;5008673;28;20115;-75
2021/04/23 00:11:43;;;;;;;11.90;6.85;;;11.50;99.90;;;;;;5007560;28;20026;-75
2021/04/23 00:14:11;;;;;;;7.45;6.57;;;11.60;99.90;;;;;;5004678;28;20392;-75
2021/04/23 00:16:38;;;;;;;7.47;6.40;;;11.50;99.90;;;;;;5010553;28;20018;-75
2021/04/23 00:19:06;;;;;;;8.15;6.82;;;11.60;99.90;;;;;;5003329;28;20062;-75
2021/04/23 00:21:33;;;;;;;13.35;8.13;;;11.70;99.90;;;;;;5001318;28;20632;-74
2021/04/23 00:23:59;;;;;;;12.13;7.45;;;11.70;99.90;;;;;;5010688;28;20100;-74
2021/04/23 00:26:25;;;;;;;16.27;8.07;;;11.70;99.90;;;;;;5010621;28;20049;-74
2021/04/23 00:28:50;;;;;;;12.60;6.88;;;11.90;99.90;;;;;;5008167;28;20516;-74
2021/04/23 00:31:16;;;;;;;9.25;7.00;;;11.80;99.90;;;;;;5009188;28;20159;-74
2021/04/23 00:33:42;;;;;;;12.73;7.97;;;11.90;99.90;;;;;;4985317;28;20062;-74
2021/04/23 00:36:09;;;;;;;8.27;7.43;;;11.90;99.90;;;;;;5003521;28;20057;-74
2021/04/23 00:38:37;;;;;;;8.98;8.07;;;11.90;99.90;;;;;;5010349;28;20018;-74
2021/04/23 00:41:15;;;;;;;9.20;7.70;;;11.90;99.90;;;;;;5011753;28;20060;-75
2021/04/23 00:43:44;;;;;;;9.45;7.85;;;11.90;99.90;;;;;;4986795;28;20117;-75
2021/04/23 00:46:11;;;;;;;13.45;7.80;;;12.00;99.90;;;;;;5008172;28;20033;-76
2021/04/23 00:48:45;;;;;;;8.20;7.38;;;12.00;99.90;;;;;;5005969;28;20038;-76
2021/04/23 00:51:15;;;;;;;9.98;7.25;;;11.90;99.90;;;;;;4985490;28;20036;-76
2021/04/23 00:53:43;;;;;;;12.45;8.05;;;11.90;99.90;;;;;;5010135;28;20056;-75
2021/04/23 00:56:14;;;;;;;11.60;7.53;;;12.00;99.90;;;;;;5011065;28;20097;-76
2021/04/23 00:58:40;;;;;;;9.25;7.53;;;11.90;99.90;;;;;;5010138;28;20360;-75
2021/04/23 01:01:19;;;;;;;7.85;6.93;;;11.90;99.90;;;;;;5005856;28;20033;-75
2021/04/23 01:03:45;;;;;;;7.95;7.18;;;11.80;99.90;;;;;;5006845;28;20033;-75
2021/04/23 01:06:18;;;;;;;14.68;8.55;;;11.90;99.90;;;;;;4990765;28;20037;-75
2021/04/23 01:08:46;;;;;;;7.80;7.00;;;12.00;99.90;;;;;;4998254;28;20030;-75
2021/04/23 01:11:13;;;;;;;9.32;7.45;;;12.00;99.90;;;;;;5009819;28;20022;-75
2021/04/23 01:13:39;;;;;;;11.27;7.70;;;12.00;99.90;;;;;;5006233;28;20045;-75
2021/04/23 01:16:08;;;;;;;8.00;7.20;;;12.00;99.90;;;;;;5009919;28;20032;-76
2021/04/23 01:18:36;;;;;;;9.95;7.38;;;12.00;99.90;;;;;;4979773;28;20026;-75
2021/04/23 01:21:02;;;;;;;14.45;7.43;;;11.90;99.90;;;;;;5003231;28;20034;-75
2021/04/23 01:23:27;;;;;;;15.13;7.78;;;11.90;99.90;;;;;;4979616;28;20076;-74
2021/04/23 01:25:53;;;;;;;9.23;7.20;;;11.80;99.90;;;;;;5010896;28;20049;-75
2021/04/23 01:28:19;;;;;;;12.95;7.22;;;11.70;99.90;;;;;;5005804;28;20029;-74
2021/04/23 01:30:45;;;;;;;10.25;7.35;;;11.70;99.90;;;;;;5004334;28;20057;-75
2021/04/23 01:33:10;;;;;;;9.77;6.95;;;11.60;99.90;;;;;;5007716;28;20426;-75
2021/04/23 01:35:36;;;;;;;7.45;6.45;;;11.70;99.90;;;;;;5009282;28;20025;-75
2021/04/23 01:38:02;;;;;;;16.88;7.40;;;11.80;99.90;;;;;;5009062;28;20053;-75
2021/04/23 01:40:28;;;;;;;11.15;7.65;;;11.90;99.90;;;;;;4987145;28;20030;-75
2021/04/23 01:42:53;;;;;;;8.07;6.47;;;11.80;99.90;;;;;;5008376;28;20034;-75
2021/04/23 01:45:19;;;;;;;10.93;6.95;;;11.90;99.90;;;;;;5010335;28;20476;-75
2021/04/23 01:47:45;;;;;;;8.02;7.32;;;11.80;99.90;;;;;;5008226;28;20041;-75
2021/04/23 01:50:15;;;;;;;10.88;8.13;;;11.90;99.90;;;;;;5010872;28;20433;-75
2021/04/23 01:52:41;;;;;;;11.20;8.48;;;11.90;99.90;;;;;;5006144;28;20095;-75
2021/04/23 01:55:10;;;;;;;12.68;8.85;;;11.80;99.90;;;;;;5009368;28;20486;-75
2021/04/23 01:57:36;;;;;;;9.75;7.65;;;11.80;99.90;;;;;;4990080;28;20062;-75
2021/04/23 02:00:31;;;;;;;11.68;9.48;;;11.70;99.90;;;;;;5010766;28;20029;-75
2021/04/23 02:03:00;;;;;;;10.90;9.90;;;11.70;99.90;;;;;;4989618;28;20053;-74
2021/04/23 02:05:27;;;;;;;14.18;8.10;;;11.60;99.90;;;;;;5002600;28;20030;-74
2021/04/23 02:07:54;;;;;;;12.77;9.43;;;11.60;99.90;;;;;;5009583;28;20033;-76
2021/04/23 02:10:23;;;;;;;11.35;9.10;;;11.50;99.90;;;;;;5009129;28;20021;-75
2021/04/23 02:12:49;;;;;;;9.68;8.63;;;11.40;99.90;;;;;;5008557;28;20029;-75
2021/04/23 02:15:18;;;;;;;12.65;9.38;;;11.40;99.90;;;;;;5006879;28;20209;-76
2021/04/23 02:17:44;;;;;;;12.00;9.05;;;11.40;99.90;;;;;;5008483;28;20040;-74
2021/04/23 02:20:15;;;;;;;9.60;8.68;;;11.40;99.90;;;;;;5006363;28;20024;-74
2021/04/23 02:22:43;;;;;;;10.90;9.10;;;11.40;99.90;;;;;;5010323;28;20419;-75
2021/04/23 02:25:10;;;;;;;10.32;8.50;;;11.50;99.90;;;;;;5007024;28;20018;-75
2021/04/23 02:27:36;;;;;;;12.35;7.75;;;11.50;99.90;;;;;;4997525;28;20026;-75
2021/04/23 02:30:07;;;;;;;10.95;7.97;;;11.50;99.90;;;;;;5011020;28;20029;-75
2021/04/23 02:32:33;;;;;;;9.32;8.20;;;11.60;99.90;;;;;;5006670;28;20113;-74
2021/04/23 02:34:59;;;;;;;9.63;8.63;;;11.60;99.90;;;;;;5004584;28;20465;-75
2021/04/23 02:37:24;;;;;;;13.27;8.88;;;11.70;99.90;;;;;;5005086;28;20030;-75
2021/04/23 02:39:50;;;;;;;12.43;8.57;;;11.70;99.90;;;;;;5014761;28;20026;-74
2021/04/23 02:42:16;;;;;;;12.85;8.48;;;11.80;99.90;;;;;;5015462;28;20364;-74
2021/04/23 02:44:42;;;;;;;9.20;8.13;;;11.90;99.90;;;;;;4985550;28;20035;-74
2021/04/23 02:47:08;;;;;;;9.82;7.95;;;11.90;99.90;;;;;;4996219;28;20029;-74
2021/04/23 02:49:33;;;;;;;11.63;7.93;;;11.80;99.90;;;;;;5014256;28;20471;-74
2021/04/23 02:51:59;;;;;;;11.27;8.75;;;11.80;99.90;;;;;;5018095;28;20030;-74
2021/04/23 02:54:26;;;;;;;9.07;8.18;;;11.90;99.90;;;;;;5016118;28;20495;-73
2021/04/23 02:56:52;;;;;;;9.93;8.93;;;11.90;99.90;;;;;;5003643;28;20022;-74
2021/04/23 02:59:18;;;;;;;9.98;8.85;;;11.80;99.90;;;;;;5017662;28;20554;-74
2021/04/23 03:01:47;;;;;;;12.55;8.18;;;11.90;99.90;;;;;;5012961;28;20068;-74
2021/04/23 03:04:13;;;;;;;12.32;8.57;;;11.80;99.90;;;;;;5016005;28;20046;-74
2021/04/23 03:06:39;;;;;;;11.48;10.15;;;11.80;99.90;;;;;;5016783;28;20026;-75
2021/04/23 03:09:07;;;;;;;10.95;8.38;;;11.70;99.90;;;;;;5018450;28;20073;-74
2021/04/23 03:11:33;;;;;;;10.15;9.15;;;11.70;99.90;;;;;;5011500;28;20025;-74
2021/04/23 03:14:00;;;;;;;10.95;7.63;;;11.80;99.90;;;;;;5010708;28;20095;-74
2021/04/23 03:16:28;;;;;;;9.35;8.30;;;11.70;99.90;;;;;;5018025;28;20026;-75
2021/04/23 03:18:55;;;;;;;9.98;8.02;;;11.70;99.90;;;;;;5010463;28;20041;-75
2021/04/23 03:21:24;;;;;;;10.73;8.27;;;11.70;99.90;;;;;;5015861;28;20028;-75
2021/04/23 03:23:50;;;;;;;13.75;8.63;;;11.70;99.90;;;;;;5016739;28;20018;-75
2021/04/23 03:26:18;;;;;;;12.80;8.70;;;11.60;99.90;;;;;;5005900;28;20041;-75
2021/04/23 03:28:44;;;;;;;9.85;7.80;;;11.70;99.90;;;;;;5016990;28;20028;-75
2021/04/23 03:31:11;;;;;;;9.13;7.63;;;11.70;99.90;;;;;;5016259;28;20034;-75
2021/04/23 03:33:37;;;;;;;8.30;7.57;;;11.60;99.90;;;;;;4994893;28;20117;-75
2021/04/23 03:36:05;;;;;;;11.82;8.25;;;11.50;99.90;;;;;;5017217;28;20030;-76
2021/04/23 03:38:32;;;;;;;11.23;8.77;;;11.50;99.90;;;;;;5012962;28;20075;-74
2021/04/23 03:41:00;;;;;;;10.10;7.88;;;11.50;99.90;;;;;;5009642;28;20036;-73
2021/04/23 03:43:26;;;;;;;12.68;9.02;;;11.50;99.90;;;;;;5007048;28;20026;-74
2021/04/23 03:45:53;;;;;;;12.43;10.05;;;11.40;99.90;;;;;;5006189;28;20660;-74
2021/04/23 03:48:19;;;;;;;9.77;8.77;;;11.40;99.90;;;;;;5011374;28;20124;-75
2021/04/23 03:50:46;;;;;;;13.85;9.00;;;11.40;99.90;;;;;;5013339;28;20036;-76
2021/04/23 03:53:14;;;;;;;13.60;9.57;;;11.40;99.90;;;;;;5008864;28;20080;-75
2021/04/23 03:55:44;;;;;;;10.52;9.30;;;11.30;99.90;;;;;;5011934;28;20033;-75
2021/04/23 03:58:12;;;;;;;11.65;9.38;;;11.30;99.90;;;;;;5010944;28;20017;-75
2021/04/23 04:00:44;;;;;;;15.50;8.82;;;11.40;99.90;;;;;;5015465;28;20105;-75
2021/04/23 04:03:11;;;;;;;8.02;7.30;;;11.50;99.90;;;;;;5010241;28;20533;-75
2021/04/23 04:05:37;;;;;;;13.57;9.68;;;11.40;99.90;;;;;;5014229;28;20675;-74
2021/04/23 04:08:04;;;;;;;7.50;6.45;;;11.40;99.90;;;;;;5010136;28;20487;-75
2021/04/23 04:10:30;;;;;;;8.93;8.00;;;11.30;99.90;;;;;;5012897;28;20080;-75
2021/04/23 04:12:56;;;;;;;11.25;8.02;;;11.50;99.90;;;;;;4992739;28;20427;-75
2021/04/23 04:15:23;;;;;;;9.82;8.52;;;11.50;99.90;;;;;;5012873;28;20017;-75
2021/04/23 04:17:50;;;;;;;9.93;8.95;;;11.40;99.90;;;;;;5005376;28;20026;-75
2021/04/23 04:20:17;;;;;;;13.38;8.95;;;11.30;99.90;;;;;;5005088;28;20548;-75
2021/04/23 04:22:43;;;;;;;10.68;8.90;;;11.20;99.90;;;;;;5004549;28;20084;-75
2021/04/23 04:25:13;;;;;;;10.35;9.27;;;11.10;99.90;;;;;;5011974;28;20488;-74
2021/04/23 04:27:39;;;;;;;11.80;10.60;;;11.00;99.90;;;;;;5009240;28;20108;-75
2021/04/23 04:30:07;;;;;;;17.90;12.98;;;11.10;99.90;;;;;;5010463;28;20063;-75
2021/04/23 04:32:33;;;;;;;13.18;8.23;;;11.10;99.90;;;;;;5010528;28;20050;-74
2021/04/23 04:34:59;;;;;;;9.48;8.57;;;11.20;99.90;;;;;;5007524;28;20033;-75
2021/04/23 04:37:25;;;;;;;9.27;7.13;;;11.40;99.90;;;;;;5010103;28;20029;-74
2021/04/23 04:39:50;;;;;;;10.60;7.38;;;11.60;99.90;;;;;;5008349;28;20531;-75
2021/04/23 04:42:16;;;;;;;15.10;7.57;;;11.70;99.90;;;;;;4982743;28;20036;-75
2021/04/23 04:44:42;;;;;;;8.43;7.63;;;11.70;99.90;;;;;;5012213;28;20041;-76
2021/04/23 04:47:07;;;;;;;10.43;7.68;;;11.60;99.90;;;;;;4994040;28;20034;-75
2021/04/23 04:49:33;;;;;;;9.10;7.03;;;11.50;99.90;;;;;;4997846;28;20030;-76
2021/04/23 04:51:59;;;;;;;9.82;7.55;;;11.50;99.90;;;;;;5005423;28;20106;-75
2021/04/23 04:54:25;;;;;;;10.70;7.22;;;11.40;99.90;;;;;;5011346;28;20022;-75
2021/04/23 04:56:51;;;;;;;8.90;8.00;;;11.50;99.90;;;;;;5003080;28;20062;-75
2021/04/23 04:59:16;;;;;;;9.15;6.97;;;11.60;99.90;;;;;;5012567;28;20022;-75
2021/04/23 05:01:42;;;;;;;12.38;7.10;;;11.70;99.90;;;;;;5000220;28;20037;-74
2021/04/23 05:04:08;;;;;;;11.90;7.65;;;11.70;99.90;;;;;;5005398;28;20026;-75
2021/04/23 05:06:33;;;;;;;8.32;7.07;;;11.80;99.90;;;;;;5001743;28;20037;-75
2021/04/23 05:08:59;;;;;;;11.00;8.20;;;11.80;99.90;;;;;;5011650;28;20014;-75
2021/04/23 05:11:25;;;;;;;9.00;7.57;;;11.80;99.90;;;;;;5006579;28;20030;-76
2021/04/23 05:13:51;;;;;;;14.40;7.90;;;11.90;99.90;;;;;;5010014;28;20018;-76
2021/04/23 05:16:17;;;;;;;9.85;7.18;;;11.90;99.90;;;;;;5005557;28;20053;-76
2021/04/23 05:18:43;;;;;;;11.45;7.28;;;11.90;99.90;;;;;;4992498;28;20026;-76
2021/04/23 05:21:08;;;;;;;10.02;8.10;;;12.10;99.90;;;;;;5001406;28;20034;-75
2021/04/23 05:23:34;;;;;;;9.18;7.50;;;12.20;99.90;;;;;;4995924;28;20152;-75
2021/04/23 05:26:00;;;;;;;9.02;8.18;;;12.30;99.90;;;;;;4997487;28;20042;-75
2021/04/23 05:28:26;;;;;;;9.48;7.88;;;12.40;99.90;;;;;;4981823;28;20026;-74
2021/04/23 05:30:52;;;;;;;10.38;7.10;;;12.50;99.90;;;;;;5005498;28;20387;-76
2021/04/23 05:33:18;;;;;;;10.00;7.70;;;12.60;99.90;;;;;;5002775;28;20025;-76
2021/04/23 05:35:44;;;;;;;8.60;7.80;;;12.60;99.90;;;;;;5009889;28;20018;-75
2021/04/23 05:38:13;;;;;;;9.48;8.50;;;12.70;99.90;;;;;;5008476;28;20037;-76
2021/04/23 05:40:43;;;;;;;8.35;7.55;;;12.90;99.90;;;;;;5004706;28;20109;-75
2021/04/23 05:43:09;;;;;;;9.68;8.30;;;13.00;99.90;;;;;;4988582;28;20029;-75
2021/04/23 05:45:35;;;;;;;8.40;7.65;;;13.10;99.90;;;;;;5005627;28;20033;-75
2021/04/23 05:48:02;;;;;;;9.35;8.25;;;13.20;99.90;;;;;;5008691;28;20369;-75
2021/04/23 05:50:28;;;;;;;10.30;9.30;;;13.30;99.90;;;;;;5010667;28;20029;-75
2021/04/23 05:52:54;;;;;;;8.50;6.95;;;13.40;99.90;;;;;;5005701;28;20026;-76
2021/04/23 05:55:26;;;;;;;9.38;8.32;;;13.40;99.90;;;;;;5005677;28;20476;-76
2021/04/23 05:57:57;;;;;;;8.07;7.35;;;13.40;99.90;;;;;;5006739;28;20018;-76
2021/04/23 06:00:25;;;;;;;10.50;8.77;;;13.50;99.90;;;;;;5004592;28;20034;-75
2021/04/23 06:02:51;;;;;;;9.80;8.52;;;13.50;99.90;;;;;;5006171;28;20357;-77
2021/04/23 06:05:18;;;;;;;11.40;8.82;;;13.70;99.90;;;;;;5008493;28;20026;-76
2021/04/23 06:07:44;;;;;;;8.98;7.57;;;13.70;99.90;;;;;;5009135;28;20037;-76
2021/04/23 06:10:12;;;;;;;9.45;7.70;;;13.70;99.90;;;;;;5009997;28;20387;-75
2021/04/23 06:12:38;;;;;;;14.88;8.32;;;13.70;99.90;;;;;;5004238;28;20026;-76
2021/04/23 06:15:06;;;;;;;9.27;8.38;;;13.90;99.90;;;;;;5008441;28;20022;-75
2021/04/23 06:17:32;;;;;;;8.30;6.97;;;13.90;99.90;;;;;;5011142;28;20018;-75
2021/04/23 06:19:58;;;;;;;9.93;8.45;;;14.00;99.90;;;;;;5010377;28;20026;-76
2021/04/23 06:22:24;;;;;;;9.35;8.32;;;14.00;99.90;;;;;;5004962;28;20076;-75
2021/04/23 06:24:50;;;;;;;8.82;8.07;;;14.00;99.90;;;;;;5015105;28;20022;-76
2021/04/23 06:27:16;;;;;;;10.55;7.90;;;14.10;99.90;;;;;;5023724;28;20045;-76
2021/04/23 06:29:43;;;;;;;12.63;9.40;;;14.20;99.90;;;;;;5015063;28;20030;-75
2021/04/23 06:32:08;;;;;;;12.10;8.52;;;14.30;99.90;;;;;;5011487;28;20046;-77
2021/04/23 06:34:34;;;;;;;12.35;9.70;;;14.30;99.90;;;;;;5009176;28;20056;-75
2021/04/23 06:37:01;;;;;;;9.60;8.60;;;14.40;99.90;;;;;;5006151;28;20111;-75
2021/04/23 06:39:26;;;;;;;14.90;7.97;;;14.50;99.90;;;;;;4991683;28;20157;-74
2021/04/23 06:41:52;;;;;;;10.27;9.07;;;14.50;99.90;;;;;;5010334;28;20105;-75
2021/04/23 06:44:19;;;;;;;8.93;7.30;;;14.60;99.90;;;;;;5008518;28;20365;-74
2021/04/23 06:46:45;;;;;;;10.40;8.93;;;14.60;99.90;;;;;;4996986;28;20041;-75
2021/04/23 06:49:12;;;;;;;9.70;8.80;;;14.70;99.90;;;;;;4990077;28;20030;-76
2021/04/23 06:51:38;;;;;;;9.95;7.95;;;14.70;99.90;;;;;;5010122;28;20404;-75
2021/04/23 06:54:07;;;;;;;13.82;7.68;;;14.80;99.90;;;;;;5001377;28;20022;-76
2021/04/23 06:56:33;;;;;;;9.80;8.32;;;14.90;99.90;;;;;;5005397;28;20484;-77
2021/04/23 06:58:59;;;;;;;8.57;7.82;;;15.00;99.90;;;;;;5010196;28;20054;-75
2021/04/23 07:01:25;;;;;;;8.60;7.82;;;15.20;99.90;;;;;;4986024;28;20046;-77
2021/04/23 07:03:51;;;;;;;9.57;8.63;;;15.20;99.90;;;;;;5005369;28;20030;-76
2021/04/23 07:06:17;;;;;;;10.00;8.20;;;15.20;99.90;;;;;;4983919;28;20545;-76
2021/04/23 07:08:42;;;;;;;8.90;8.00;;;15.20;99.90;;;;;;5010024;28;20549;-76
2021/04/23 07:11:08;;;;;;;11.73;8.57;;;15.40;99.90;;;;;;4989056;28;20065;-76
2021/04/23 07:13:34;;;;;;;12.90;9.40;;;15.30;99.90;;;;;;4991818;28;20021;-76
2021/04/23 07:16:01;;;;;;;10.70;9.13;;;15.40;99.90;;;;;;4994380;28;20030;-75
2021/04/23 07:18:27;;;;;;;9.80;8.10;;;15.40;99.90;;;;;;5005817;28;20105;-76
2021/04/23 07:20:54;;;;;;;9.57;8.52;;;15.50;99.90;;;;;;5010979;28;20030;-76
2021/04/23 07:23:20;;;;;;;10.00;8.05;;;15.50;99.90;;;;;;5009766;28;20052;-76
2021/04/23 07:25:46;;;;;;;9.48;8.52;;;15.50;99.90;;;;;;5011940;28;20061;-76
2021/04/23 07:28:12;;;;;;;11.35;8.32;;;15.60;99.90;;;;;;5010153;28;20507;-76
2021/04/23 07:30:39;;;;;;;11.25;8.27;;;15.60;99.90;;;;;;5005947;28;20045;-76
2021/04/23 07:33:08;;;;;;;10.05;8.98;;;15.80;99.90;;;;;;5013577;28;20028;-70
2021/04/23 07:35:34;;;;;;;12.57;9.23;;;15.80;99.90;;;;;;5012392;28;20062;-69
2021/04/23 07:38:01;;;;;;;8.23;7.40;;;15.80;99.90;;;;;;5002956;28;20050;-71
2021/04/23 07:40:27;;;;;;;11.13;9.23;;;16.00;99.90;;;;;;5005173;28;20423;-71
2021/04/23 07:42:53;;;;;;;9.02;8.20;;;16.10;99.90;;;;;;5008084;28;20033;-69
2021/04/23 07:45:20;;;;;;;11.32;8.65;;;16.20;99.90;;;;;;5011491;28;20033;-72
2021/04/23 07:47:46;;;;;;;13.50;9.02;;;15.90;99.90;;;;;;5002955;28;20026;-71
2021/04/23 07:50:15;;;;;;;12.45;9.88;;;16.00;99.90;;;;;;5006519;28;20033;-72
2021/04/23 07:52:41;;;;;;;9.55;8.65;;;16.10;99.90;;;;;;5010855;28;20026;-68
2021/04/23 07:55:09;;;;;;;8.52;7.72;;;16.30;99.90;;;;;;5008173;28;20041;-70
2021/04/23 07:57:36;;;;;;;10.55;8.40;;;16.40;99.90;;;;;;5008040;28;20117;-70
2021/04/23 08:00:05;;;;;;;8.13;7.32;;;16.60;99.90;;;;;;5012536;28;20038;-70
2021/04/23 08:02:31;;;;;;;9.80;6.35;;;16.60;99.90;;;;;;5008450;28;20095;-70
2021/04/23 08:04:57;;;;;;;8.85;7.35;;;16.60;99.90;;;;;;5006851;28;20064;-70
2021/04/23 08:07:22;;;;;;;12.93;8.75;;;16.70;99.90;;;;;;5008721;28;20503;-70
2021/04/23 08:09:48;;;;;;;9.02;8.05;;;16.70;99.90;;;;;;5010273;28;20123;-71
2021/04/23 08:12:14;;;;;;;9.45;7.88;;;16.70;99.90;;;;;;5010199;28;20547;-70
2021/04/23 08:14:39;;;;;;;10.30;7.47;;;16.50;99.90;;;;;;5002254;28;20132;-70
2021/04/23 08:17:05;;;;;;;11.07;6.57;;;16.40;99.90;;;;;;5009297;28;20022;-71
2021/04/23 08:19:31;;;;;;;13.40;8.88;;;16.50;99.90;;;;;;5008102;28;20021;-71
2021/04/23 08:21:57;;;;;;;9.23;7.03;;;16.70;99.90;;;;;;5011397;28;20063;-71
2021/04/23 08:24:23;;;;;;;7.60;6.90;;;16.80;99.90;;;;;;5004563;28;20030;-72
2021/04/23 08:26:48;;;;;;;11.13;7.43;;;16.80;99.90;;;;;;5008348;28;20440;-71
2021/04/23 08:29:14;;;;;;;11.20;7.40;;;16.70;99.90;;;;;;4992118;28;20026;-71
2021/04/23 08:31:42;;;;;;;9.32;8.43;;;16.80;99.90;;;;;;5012245;28;20445;-71
2021/04/23 08:34:08;;;;;;;7.68;6.20;;;16.90;99.90;;;;;;5010986;28;20052;-71
2021/04/23 08:36:34;;;;;;;8.20;7.30;;;17.10;99.90;;;;;;5011739;28;20026;-71
2021/04/23 08:39:00;;;;;;;13.25;7.13;;;17.10;99.90;;;;;;4990766;28;20030;-71
2021/04/23 08:41:25;;;;;;;10.23;8.30;;;16.90;99.90;;;;;;5011224;28;20025;-71
2021/04/23 08:43:51;;;;;;;13.80;8.27;;;17.00;99.90;;;;;;5011879;28;20030;-70
2021/04/23 08:46:17;;;;;;;8.55;7.35;;;17.00;99.90;;;;;;4979403;28;20044;-71
2021/04/23 08:48:43;;;;;;;10.90;6.38;;;17.00;99.90;;;;;;5000321;28;20033;-70
2021/04/23 08:51:09;;;;;;;13.23;7.25;;;17.20;99.90;;;;;;5006130;28;20033;-71
2021/04/23 08:53:37;;;;;;;8.80;6.53;;;17.50;99.90;;;;;;5011958;28;20067;-71
2021/04/23 08:56:04;;;;;;;11.88;7.60;;;17.60;99.90;;;;;;5006346;28;20014;-71
2021/04/23 08:58:29;;;;;;;11.73;6.30;;;17.60;99.90;;;;;;5010176;28;20498;-71
2021/04/23 09:00:55;;;;;;;11.20;6.70;;;17.80;99.90;;;;;;5012339;28;20026;-72
2021/04/23 09:03:24;;;;;;;7.88;6.85;;;17.70;99.90;;;;;;5007039;28;20041;-71
2021/04/23 09:06:11;;;;;;;16.08;7.15;;;17.60;99.90;;;;;;5005362;28;20030;-71
2021/04/23 09:08:52;;;;;;;8.70;5.88;;;17.30;99.90;;;;;;5006522;28;20443;-70
2021/04/23 09:11:21;;;;;;;10.77;8.02;;;17.30;99.90;;;;;;5010841;28;20052;-71
2021/04/23 09:13:49;;;;;;;10.75;6.15;;;17.40;99.90;;;;;;5006931;28;20082;-72
2021/04/23 09:16:16;;;;;;;8.15;6.50;;;17.20;99.90;;;;;;5007827;28;20107;-72
2021/04/23 09:18:42;;;;;;;7.63;6.57;;;17.20;99.90;;;;;;4979547;28;20247;-72
2021/04/23 09:21:13;;;;;;;9.68;5.95;;;17.30;99.90;;;;;;5007867;28;20121;-71
2021/04/23 09:23:46;;;;;;;8.40;6.43;;;17.40;99.90;;;;;;5011700;28;20029;-72
2021/04/23 09:26:31;;;;;;;8.20;5.38;;;17.40;99.90;;;;;;5008675;28;20083;-71
2021/04/23 09:28:57;;;;;;;7.40;5.47;;;17.50;99.90;;;;;;5011856;28;20029;-71
2021/04/23 09:31:32;;;;;;;7.68;6.45;;;17.70;99.90;;;;;;4991466;28;20026;-70
2021/04/23 09:34:03;;;;;;;10.82;5.93;;;17.90;99.90;;;;;;5011616;28;20456;-71
2021/04/23 09:36:45;;;;;;;7.88;5.70;;;18.00;99.90;;;;;;5010417;28;20041;-71
2021/04/23 09:39:22;;;;;;;6.23;5.07;;;18.10;99.90;;;;;;4991555;28;20025;-71
2021/04/23 09:41:54;;;;;;;8.70;5.45;;;18.20;99.90;;;;;;5008895;28;20022;-71
2021/04/23 09:44:32;;;;;;;9.52;5.07;;;18.40;99.90;;;;;;4996705;28;20134;-71
2021/04/23 09:47:15;;;;;;;9.05;4.90;;;18.30;99.90;;;;;;5006880;28;20365;-71
2021/04/23 09:49:42;;;;;;;7.45;5.88;;;18.30;99.90;;;;;;4988881;28;20037;-72
2021/04/23 09:52:11;;;;;;;9.52;5.93;;;18.40;99.90;;;;;;5007805;28;20460;-71
2021/04/23 09:54:37;;;;;;;10.27;5.95;;;18.40;99.90;;;;;;5010922;28;20018;-71
2021/04/23 09:57:13;;;;;;;9.95;5.05;;;18.40;99.90;;;;;;4992135;28;20032;-71
2021/04/23 09:59:54;;;;;;;7.55;4.47;;;18.30;99.90;;;;;;5007870;28;20075;-71
2021/04/23 10:02:22;;;;;;;7.22;5.03;;;18.40;99.90;;;;;;5000367;28;20026;-73
2021/04/23 10:04:48;;;;;;;9.98;5.70;;;18.40;99.90;;;;;;4992092;28;20472;-70
2021/04/23 10:07:25;;;;;;;8.52;4.78;;;18.50;99.90;;;;;;4984904;28;20033;-70
2021/04/23 10:09:53;;;;;;;8.40;4.93;;;18.70;99.90;;;;;;4990242;28;20052;-72
2021/04/23 10:12:37;;;;;;;8.32;5.22;;;18.80;99.90;;;;;;5004145;28;20014;-72
2021/04/23 10:15:13;;;;;;;6.22;5.03;;;18.80;99.90;;;;;;4991214;28;21700;-70
2021/04/23 10:17:41;;;;;;;6.28;4.65;;;19.00;99.90;;;;;;4989159;28;20030;-71
2021/04/23 10:20:10;;;;;;;8.40;4.85;;;19.10;99.90;;;;;;4993198;28;20037;-70
2021/04/23 10:22:36;;;;;;;7.85;4.60;;;19.10;99.90;;;;;;5005897;28;20706;-71
2021/04/23 10:25:02;;;;;;;7.75;4.38;;;19.00;99.90;;;;;;5010224;28;20109;-71
2021/04/23 10:27:28;;;;;;;11.13;4.18;;;19.10;99.90;;;;;;5004238;28;20030;-73
2021/04/23 10:29:54;;;;;;;5.70;4.28;;;19.20;99.90;;;;;;5008859;28;20041;-72
2021/04/23 10:32:21;;;;;;;6.90;4.50;;;19.00;99.90;;;;;;5006520;28;20022;-71
2021/04/23 10:34:48;;;;;;;10.95;5.88;;;19.20;99.90;;;;;;4992396;28;20018;-73
2021/04/23 10:37:15;;;;;;;8.15;5.35;;;19.00;99.90;;;;;;5007463;28;20026;-71
2021/04/23 10:39:47;;;;;;;7.38;6.07;;;18.90;99.90;;;;;;5006210;28;20025;-72
2021/04/23 10:42:41;;;;;;;22.15;6.45;;;18.80;99.90;;;;;;4990826;28;20034;-71
2021/04/23 10:45:22;;;;;;;7.20;6.30;;;18.40;99.90;;;;;;5011017;28;20029;-72
2021/04/23 10:47:51;;;;;;;11.27;5.10;;;18.20;99.90;;;;;;4977574;28;20184;-71
2021/04/23 10:50:19;;;;;;;10.80;6.30;;;18.20;99.90;;;;;;5011174;28;20022;-72
2021/04/23 10:53:08;;;;;;;7.22;5.30;;;18.30;99.90;;;;;;4999219;28;20045;-73
2021/04/23 10:55:37;;;;;;;6.13;5.55;;;18.30;99.90;;;;;;4988844;28;20103;-75
2021/04/23 10:58:03;;;;;;;5.43;4.90;;;18.20;99.90;;;;;;5009417;28;20472;-75
2021/04/23 11:00:52;;;;;;;9.55;6.35;;;18.10;99.90;;;;;;4976264;28;20085;-77
2021/04/23 11:03:21;;;;;;;8.90;4.88;;;18.10;99.90;;;;;;4995449;28;20042;-75
2021/04/23 11:05:48;;;;;;;10.38;5.13;;;18.30;99.90;;;;;;4995237;28;20109;-74
2021/04/23 11:08:14;;;;;;;7.20;5.47;;;18.30;99.90;;;;;;4995867;28;20507;-75
2021/04/23 11:11:13;;;;;;;6.43;5.82;;;18.20;99.90;;;;;;5013895;28;20030;-76
2021/04/23 11:13:44;;;;;;;9.88;5.10;;;18.10;99.90;;;;;;4998485;28;20044;-75
2021/04/23 11:16:19;;;;;;;10.27;4.22;;;18.10;99.90;;;;;;5008666;28;20036;-76
2021/04/23 11:18:58;;;;;;;5.18;4.68;;;18.20;99.90;;;;;;5017710;28;20018;-77
2021/04/23 11:21:30;;;;;;;7.57;5.07;;;18.30;99.90;;;;;;5008067;28;20097;-76
2021/04/23 11:24:15;;;;;;;12.32;5.43;;;18.30;99.90;;;;;;5003641;28;20034;-76
2021/04/23 11:27:00;;;;;;;6.57;4.95;;;18.40;99.90;;;;;;5013938;28;20503;-77
2021/04/23 11:29:53;;;;;;;7.00;4.93;;;18.60;99.90;;;;;;5013420;28;20033;-76
2021/04/23 11:32:26;;;;;;;4.85;4.50;;;18.60;99.90;;;;;;5013210;28;20018;-77
2021/04/23 11:34:56;;;;;;;7.97;4.47;;;18.70;99.90;;;;;;5001562;28;20052;-75
2021/04/23 11:37:31;;;;;;;11.85;4.72;;;18.80;99.90;;;;;;4993854;28;20101;-76
2021/04/23 11:39:57;;;;;;;7.78;4.50;;;19.00;99.90;;;;;;4993811;28;20061;-75
2021/04/23 11:42:24;;;;;;;5.00;4.60;;;19.10;99.90;;;;;;4994052;28;20027;-78
2021/04/23 11:45:05;;;;;;;8.65;4.30;;;19.30;99.90;;;;;;5009498;28;20177;-77
2021/04/23 11:47:48;;;;;;;4.85;4.40;;;19.50;99.90;;;;;;5023642;28;20026;-77
2021/04/23 11:50:15;;;;;;;5.60;3.53;;;19.60;99.90;;;;;;5021581;28;20491;-77
2021/04/23 11:52:43;;;;;;;7.93;4.30;;;19.60;99.90;;;;;;5014797;28;20091;-77
2021/04/23 11:55:11;;;;;;;4.82;4.07;;;19.60;99.90;;;;;;5002677;28;20026;-77
2021/04/23 11:57:37;;;;;;;7.07;4.30;;;19.60;99.90;;;;;;5001023;28;20045;-76
2021/04/23 12:00:11;;;;;;;9.40;4.95;;;19.60;99.90;;;;;;5013654;28;20167;-78
2021/04/23 12:02:43;;;;;;;7.80;4.57;;;19.50;99.90;;;;;;4982132;28;20030;-78
2021/04/23 12:05:24;;;;;;;7.28;4.03;;;19.40;99.90;;;;;;5012013;28;20140;-79
2021/04/23 12:07:51;;;;;;;4.82;3.83;;;19.30;99.90;;;;;;5013498;28;20101;-76
2021/04/23 12:10:19;;;;;;;4.95;4.25;;;19.20;99.90;;;;;;4995170;28;20030;-77
2021/04/23 12:12:46;;;;;;;9.18;4.90;;;19.10;99.90;;;;;;5012480;28;20090;-78
2021/04/23 12:15:22;;;;;;;6.53;5.50;;;19.10;99.90;;;;;;5012787;28;20037;-76
2021/04/23 12:17:48;;;;;;;8.02;5.30;;;19.10;99.90;;;;;;5012790;28;20018;-77
2021/04/23 12:20:19;;;;;;;7.50;4.88;;;19.10;99.90;;;;;;5000640;28;20539;-77
2021/04/23 12:22:45;;;;;;;8.32;4.70;;;19.10;99.90;;;;;;4994080;28;20028;-77
2021/04/23 12:25:18;;;;;;;5.75;5.20;;;19.10;99.90;;;;;;5007254;28;20038;-77
2021/04/23 12:27:44;;;;;;;8.18;5.20;;;18.80;99.90;;;;;;5013987;28;20053;-78
2021/04/23 12:30:11;;;;;;;8.15;6.75;;;18.80;99.90;;;;;;4995408;28;20468;-78
2021/04/23 12:32:50;;;;;;;8.77;4.45;;;18.90;99.90;;;;;;5013907;28;20025;-77
2021/04/23 12:35:33;;;;;;;5.95;4.72;;;19.10;99.90;;;;;;4998020;28;20501;-77
2021/04/23 12:37:59;;;;;;;10.88;4.90;;;19.20;99.90;;;;;;4993830;28;20452;-76
2021/04/23 12:40:38;;;;;;;7.50;5.22;;;19.30;99.90;;;;;;4994364;28;20030;-76
2021/04/23 12:43:22;;;;;;;9.23;4.50;;;19.40;99.90;;;;;;4994405;28;20045;-77
2021/04/23 12:45:52;;;;;;;5.60;4.25;;;19.40;99.90;;;;;;4994389;28;20049;-77
2021/04/23 12:48:21;;;;;;;6.43;4.13;;;19.40;99.90;;;;;;4975969;28;20038;-76
2021/04/23 12:50:50;;;;;;;4.07;3.38;;;19.40;99.90;;;;;;4994289;28;20500;-76